Main page
METAR-TAF:

METAR-TAF

Airports :

Trieste, Italy

latitude: 45-39N, longitude: 013-45E, elevation: 8 m

Current weather observation

The report was made 1 hour and 19 minutes ago, at 20:55 UTC
Wind 8 kt from the East/Northeast with gusts up to 20 kt
Temperature 23°C
Humidity 78%
Pressure 1013 hPa
Visibility 10 km or more
Few clouds at a height of 2000 ft, Cumulonimbus.
thunderstorm

METAR: LIVT 192055Z 06008G20KT 9999 TS FEW020CB 23/19 Q1013 RMK BKN QUK / QUL / VIS MAR 10 KM VIS MIN 9999

Time: 00:14 (22:14 UTC)


TAF: missing

Weather observations and forecasts of more than 4000 airports (METAR and TAF reports).

The available stations are represented by yellow and red dots on the map.

Hover mouse over dot to see the name of the station.

Then click to see weather observations and forecasts.

To change the map : click on the green buttons with a black cross to zoom in, on the green button with a dash to zoom out, or on the green arrows for adjacent maps.


METAR-TAF: